Terminal Aerodrome Forecast
Issued by NWS

Home | Current Version | Previous Version | Text Only | Print | Product List | Glossary On
Versions: 1 2 3 4 5 6 7 8 9 10 11 12 13 14 15 16 17 18 19 20 21 22 23 24 25 26 27 28 29 30
826
FTUS41 KAKQ 221541 AAD
TAFPHF
TAF AMD
KPHF 221541Z 2216/2312 01004KT 2SM BR OVC003
      TEMPO 2216/2217 1SM BR
     FM221800 04005KT 5SM -SHRA OVC006
     FM230000 05008KT 4SM BR OVC005
     FM230600 07013G19KT 3SM RA BR OVC005=

USA.gov is the U.S. government's official web portal to all federal, state and local government web resources and services.